createdAt,value
2023-08-02T00:00:44.264Z,6.00
2023-08-02T00:03:12.014Z,4.80
2023-08-02T00:05:39.787Z,5.10
2023-08-02T00:08:07.432Z,5.60
2023-08-02T00:10:38.518Z,5.20
2023-08-02T00:13:06.141Z,5.30
2023-08-02T00:15:33.805Z,5.60
2023-08-02T00:18:01.566Z,5.60
2023-08-02T00:20:29.303Z,4.50
2023-08-02T00:22:56.835Z,5.50
2023-08-02T00:25:27.934Z,5.30
2023-08-02T00:28:00.158Z,5.30
2023-08-02T00:30:32.132Z,5.40
2023-08-02T00:33:00.089Z,6.00
2023-08-02T00:35:27.625Z,5.20
2023-08-02T00:37:55.175Z,5.30
2023-08-02T00:40:26.029Z,5.70
2023-08-02T00:42:53.639Z,5.70
2023-08-02T00:45:21.200Z,5.60
2023-08-02T00:47:48.888Z,5.30
2023-08-02T00:50:16.514Z,5.50
2023-08-02T00:52:44.166Z,5.40
2023-08-02T00:55:11.711Z,5.60
2023-08-02T00:57:39.331Z,5.50
2023-08-02T01:00:08.006Z,6.00
2023-08-02T01:02:35.636Z,5.90
2023-08-02T01:05:04.736Z,5.20
2023-08-02T01:07:48.695Z,5.60
2023-08-02T01:10:25.556Z,5.20
2023-08-02T01:12:55.456Z,5.90
2023-08-02T01:15:24.284Z,5.90
2023-08-02T01:17:52.148Z,5.90
2023-08-02T01:20:20.143Z,5.30
2023-08-02T01:22:47.973Z,5.70
2023-08-02T01:25:15.613Z,6.00
2023-08-02T01:27:54.127Z,5.40
2023-08-02T01:30:21.965Z,5.70
2023-08-02T01:32:49.579Z,6.00
2023-08-02T01:35:17.781Z,5.20
2023-08-02T01:37:45.336Z,5.70
2023-08-02T01:40:15.678Z,6.00
2023-08-02T01:42:43.209Z,6.10
2023-08-02T01:45:11.915Z,6.60
2023-08-02T01:47:39.445Z,6.00
2023-08-02T01:50:08.194Z,5.70
2023-08-02T01:52:35.753Z,5.20
2023-08-02T01:55:03.436Z,6.20
2023-08-02T01:57:31.385Z,6.00
2023-08-02T01:59:58.951Z,6.40
2023-08-02T02:02:26.749Z,6.00
2023-08-02T02:04:54.361Z,5.60
2023-08-02T02:07:21.942Z,5.80
2023-08-02T02:09:49.439Z,5.80
2023-08-02T02:12:16.963Z,6.00
2023-08-02T02:14:44.443Z,5.70
2023-08-02T02:17:11.963Z,6.20
2023-08-02T02:19:40.461Z,5.70
2023-08-02T02:22:08.076Z,5.70
2023-08-02T02:24:36.153Z,6.00
2023-08-02T02:27:03.992Z,6.10
2023-08-02T02:29:31.507Z,6.30
2023-08-02T02:31:59.217Z,5.90
2023-08-02T02:34:26.980Z,5.70
2023-08-02T02:36:55.004Z,5.80
2023-08-02T02:39:25.783Z,5.90
2023-08-02T02:41:53.408Z,6.30
2023-08-02T02:44:20.940Z,6.30
2023-08-02T02:46:48.539Z,5.30
2023-08-02T02:49:16.127Z,6.00
2023-08-02T02:51:43.661Z,6.40
2023-08-02T02:54:11.393Z,6.50
2023-08-02T02:56:38.939Z,6.60
2023-08-02T02:59:06.496Z,6.90
2023-08-02T03:01:34.092Z,6.40
2023-08-02T03:04:01.589Z,6.10
2023-08-02T03:06:29.150Z,6.00
2023-08-02T03:08:56.822Z,6.50
2023-08-02T03:11:24.706Z,6.50
2023-08-02T03:13:52.264Z,7.10
2023-08-02T03:16:19.857Z,6.50
2023-08-02T03:18:49.698Z,5.60
2023-08-02T03:23:44.655Z,7.00
2023-08-02T03:26:12.246Z,7.40
2023-08-02T03:28:39.787Z,7.00
2023-08-02T03:31:07.734Z,6.40
2023-08-02T03:33:35.517Z,6.30
2023-08-02T03:36:03.105Z,6.70
2023-08-02T03:38:31.420Z,6.40
2023-08-02T03:40:59.098Z,6.90
2023-08-02T03:43:26.627Z,6.50
2023-08-02T03:45:54.192Z,6.10
2023-08-02T03:48:21.771Z,6.80
2023-08-02T03:50:49.511Z,6.80
2023-08-02T03:53:17.015Z,6.90
2023-08-02T03:55:44.539Z,6.40
2023-08-02T03:58:12.181Z,6.60
2023-08-02T04:00:39.716Z,7.00
2023-08-02T04:03:07.343Z,6.30
2023-08-02T04:05:34.918Z,7.30
2023-08-02T04:08:03.358Z,6.70
2023-08-02T04:10:30.922Z,5.90
2023-08-02T04:12:58.425Z,6.40
2023-08-02T04:15:43.000Z,7.00
2023-08-02T04:18:11.292Z,7.00
2023-08-02T04:20:41.745Z,6.80
2023-08-02T04:23:09.412Z,6.00
2023-08-02T04:25:37.150Z,6.80
2023-08-02T04:28:05.227Z,6.80
2023-08-02T04:30:32.902Z,6.40
2023-08-02T04:33:00.480Z,6.00
2023-08-02T04:35:29.918Z,6.00
2023-08-02T04:37:58.048Z,6.10
2023-08-02T04:40:25.535Z,6.30
2023-08-02T04:42:55.220Z,6.20
2023-08-02T04:47:50.386Z,5.90
2023-08-02T04:50:18.026Z,5.00
2023-08-02T04:52:45.516Z,5.90
2023-08-02T04:55:13.050Z,5.90
2023-08-02T04:57:40.541Z,6.30
2023-08-02T05:00:08.655Z,5.90
2023-08-02T05:02:37.633Z,5.70
2023-08-02T05:05:06.312Z,5.00
2023-08-02T05:07:34.598Z,5.30
2023-08-02T05:10:07.258Z,5.70
2023-08-02T05:12:44.653Z,5.70
2023-08-02T05:15:19.500Z,5.80
2023-08-02T05:17:54.559Z,5.40
2023-08-02T05:23:23.001Z,5.40
2023-08-02T05:25:51.069Z,5.60
2023-08-02T05:28:19.846Z,5.80
2023-08-02T05:30:48.871Z,5.30
2023-08-02T05:33:16.433Z,5.60
2023-08-02T05:35:44.070Z,5.20
2023-08-02T05:38:11.788Z,5.20
2023-08-02T05:40:39.305Z,5.30
2023-08-02T05:43:07.631Z,5.00
2023-08-02T05:45:35.348Z,5.70
2023-08-02T05:48:03.017Z,5.40
2023-08-02T05:50:30.871Z,5.00
2023-08-02T05:52:58.376Z,5.60
2023-08-02T05:55:25.994Z,5.70
2023-08-02T05:57:53.475Z,5.50
2023-08-02T06:00:21.027Z,5.30
2023-08-02T06:02:48.548Z,6.00
2023-08-02T06:05:16.223Z,5.20
2023-08-02T06:07:43.757Z,5.30
2023-08-02T06:10:11.457Z,5.00
2023-08-02T06:12:38.944Z,5.50
2023-08-02T06:15:07.333Z,5.70
2023-08-02T06:17:34.912Z,5.80
2023-08-02T06:20:02.553Z,5.80
2023-08-02T06:22:30.401Z,5.20
2023-08-02T06:24:57.952Z,4.80
2023-08-02T06:27:26.073Z,5.50
2023-08-02T06:29:53.581Z,5.50
2023-08-02T06:32:21.272Z,5.10
2023-08-02T06:34:48.828Z,5.80
2023-08-02T06:37:16.329Z,5.20
2023-08-02T06:39:43.888Z,5.50
2023-08-02T06:42:11.447Z,5.20
2023-08-02T06:44:39.020Z,5.40
2023-08-02T06:47:06.927Z,4.60
2023-08-02T06:49:36.149Z,4.40
2023-08-02T06:52:04.273Z,5.00
2023-08-02T06:54:31.969Z,5.10
2023-08-02T06:56:59.552Z,5.20
2023-08-02T06:59:27.226Z,5.00
2023-08-02T07:01:55.167Z,5.00
2023-08-02T07:04:22.716Z,5.40
2023-08-02T07:06:50.396Z,5.10
2023-08-02T07:09:17.905Z,5.50
2023-08-02T07:11:45.445Z,5.40
2023-08-02T07:14:13.085Z,5.20
2023-08-02T07:16:40.749Z,5.20
2023-08-02T07:19:08.425Z,4.90
2023-08-02T07:21:35.922Z,4.70
2023-08-02T07:24:03.751Z,4.80
2023-08-02T07:26:31.499Z,4.70
2023-08-02T07:28:59.187Z,5.30
2023-08-02T07:31:26.695Z,5.30
2023-08-02T07:33:54.328Z,5.20
2023-08-02T07:36:22.108Z,5.10
2023-08-02T07:38:50.359Z,4.90
2023-08-02T07:41:19.307Z,5.70
2023-08-02T07:43:48.221Z,4.80
2023-08-02T07:46:25.447Z,4.70
2023-08-02T07:48:53.441Z,4.50
2023-08-02T07:51:21.402Z,4.10
2023-08-02T07:53:53.599Z,4.60
2023-08-02T07:56:21.851Z,4.10
2023-08-02T07:58:49.988Z,4.20
2023-08-02T08:01:17.780Z,4.00
2023-08-02T08:03:45.572Z,3.90
2023-08-02T08:06:15.234Z,3.80
2023-08-02T08:08:43.418Z,3.80
2023-08-02T08:11:11.498Z,4.40
2023-08-02T08:13:39.060Z,4.20
2023-08-02T08:16:06.712Z,3.80
2023-08-02T08:18:34.564Z,4.10
2023-08-02T08:21:06.067Z,4.30
2023-08-02T08:23:34.611Z,3.90
2023-08-02T08:26:02.262Z,4.40
2023-08-02T08:28:29.893Z,4.20
2023-08-02T08:31:01.852Z,4.30
2023-08-02T08:33:30.661Z,4.10
2023-08-02T08:35:58.402Z,5.20
2023-08-02T08:38:26.155Z,4.60
2023-08-02T08:40:54.495Z,4.60
2023-08-02T08:43:26.280Z,4.10
2023-08-02T08:45:53.965Z,4.50
2023-08-02T08:48:22.456Z,4.40
2023-08-02T08:50:50.000Z,4.50
2023-08-02T08:53:23.683Z,4.20
2023-08-02T08:55:51.349Z,3.90
2023-08-02T08:58:20.056Z,4.10
2023-08-02T09:00:47.612Z,3.80
2023-08-02T09:03:15.388Z,4.00
2023-08-02T09:05:43.137Z,3.90
2023-08-02T09:08:10.719Z,3.60
2023-08-02T09:10:39.380Z,3.80
2023-08-02T09:13:07.602Z,3.90
2023-08-02T09:15:35.652Z,3.80
2023-08-02T09:18:03.321Z,3.50
2023-08-02T09:20:31.051Z,3.50
2023-08-02T09:22:58.589Z,3.30
2023-08-02T09:25:27.932Z,3.40
2023-08-02T09:27:57.023Z,3.50
2023-08-02T09:30:33.334Z,3.40
2023-08-02T09:33:07.400Z,3.20
2023-08-02T09:35:49.029Z,3.60
2023-08-02T09:38:17.746Z,3.10
2023-08-02T09:41:22.561Z,3.40
2023-08-02T09:43:36.322Z,3.40
2023-08-02T09:46:03.944Z,3.30
2023-08-02T09:48:37.864Z,3.40
2023-08-02T09:51:05.526Z,3.10
2023-08-02T09:53:33.898Z,3.10
2023-08-02T09:56:02.032Z,3.10
2023-08-02T09:58:31.921Z,3.20
2023-08-02T10:02:19.426Z,2.80
2023-08-02T10:04:47.135Z,3.00
2023-08-02T10:07:14.748Z,3.10
2023-08-02T10:09:42.280Z,3.20
2023-08-02T10:12:11.295Z,2.80
2023-08-02T10:14:38.865Z,2.80
2023-08-02T10:17:06.378Z,2.80
2023-08-02T10:19:35.367Z,2.90
2023-08-02T10:22:05.652Z,3.00
2023-08-02T10:24:33.354Z,2.90
2023-08-02T10:27:05.471Z,2.80
2023-08-02T10:29:34.672Z,2.70
2023-08-02T10:32:15.513Z,2.90
2023-08-02T10:34:43.874Z,2.90
2023-08-02T10:37:11.378Z,3.00
2023-08-02T10:39:48.844Z,2.50
2023-08-02T10:42:17.318Z,2.80
2023-08-02T10:44:57.350Z,2.60
2023-08-02T10:47:37.077Z,2.60
2023-08-02T10:50:05.452Z,2.50
2023-08-02T10:52:37.349Z,2.50
2023-08-02T10:55:12.376Z,2.60
2023-08-02T10:57:55.945Z,2.40
2023-08-02T11:00:25.732Z,2.60
2023-08-02T11:02:54.545Z,2.40
2023-08-02T11:05:44.682Z,2.40
2023-08-02T11:08:12.782Z,2.20
2023-08-02T11:10:56.968Z,2.50
2023-08-02T11:13:24.934Z,2.30
2023-08-02T11:16:06.519Z,2.20
2023-08-02T11:18:34.869Z,2.60
2023-08-02T11:21:13.300Z,2.60
2023-08-02T11:24:01.170Z,2.40
2023-08-02T11:29:16.134Z,2.30
2023-08-02T11:31:46.946Z,2.60
2023-08-02T11:34:20.512Z,2.60
2023-08-02T11:36:50.308Z,2.20
2023-08-02T11:41:49.425Z,2.50
2023-08-02T11:46:55.596Z,2.60
2023-08-02T11:49:24.079Z,2.50
2023-08-02T11:51:51.737Z,2.50
2023-08-02T11:54:19.271Z,2.50
2023-08-02T11:56:47.163Z,2.30
2023-08-02T11:59:14.932Z,2.30
2023-08-02T12:01:43.455Z,2.50
2023-08-02T12:04:11.256Z,2.50
2023-08-02T12:06:48.893Z,2.50
2023-08-02T12:09:16.783Z,2.40
2023-08-02T12:11:44.824Z,2.60
2023-08-02T12:14:12.473Z,2.20
2023-08-02T12:16:41.896Z,2.20
2023-08-02T12:19:10.119Z,2.40
2023-08-02T12:21:38.979Z,2.30
2023-08-02T12:24:16.930Z,2.40
2023-08-02T12:26:44.982Z,2.60
2023-08-02T12:29:22.350Z,2.40
2023-08-02T12:31:50.587Z,2.70
2023-08-02T12:34:18.364Z,2.70
2023-08-02T12:36:48.187Z,2.50
2023-08-02T12:39:15.751Z,2.50
2023-08-02T12:41:43.362Z,2.50
2023-08-02T12:44:11.012Z,2.60
2023-08-02T12:46:38.556Z,2.70
2023-08-02T12:49:06.205Z,2.50
2023-08-02T12:51:33.829Z,2.70
2023-08-02T12:54:01.552Z,2.80
2023-08-02T12:56:29.232Z,2.60
2023-08-02T12:58:56.985Z,2.30
2023-08-02T13:01:24.823Z,2.90
2023-08-02T13:03:52.586Z,2.80
2023-08-02T13:06:20.261Z,2.80
2023-08-02T13:08:47.868Z,3.10
2023-08-02T13:11:15.904Z,2.80
2023-08-02T13:13:43.725Z,2.70
2023-08-02T13:16:11.353Z,3.00
2023-08-02T13:18:42.416Z,2.50
2023-08-02T13:21:14.733Z,2.50
2023-08-02T13:23:43.119Z,2.70
2023-08-02T13:26:10.971Z,2.50
2023-08-02T13:28:38.689Z,2.60
2023-08-02T13:31:06.187Z,2.70
2023-08-02T13:33:33.887Z,2.40
2023-08-02T13:36:01.423Z,2.50
2023-08-02T13:38:28.981Z,2.80
2023-08-02T13:40:57.986Z,2.80
2023-08-02T13:43:27.709Z,2.50
2023-08-02T13:45:55.355Z,2.70
2023-08-02T13:48:22.969Z,2.70
2023-08-02T13:50:50.454Z,2.50
2023-08-02T13:53:17.932Z,2.80
2023-08-02T13:55:45.448Z,2.70
2023-08-02T13:58:13.118Z,2.90
2023-08-02T14:00:40.628Z,2.80
2023-08-02T14:03:08.250Z,3.40
2023-08-02T14:05:35.939Z,2.70
2023-08-02T14:08:03.671Z,3.00
2023-08-02T14:10:31.601Z,2.80
2023-08-02T14:13:00.002Z,2.60
2023-08-02T14:15:27.582Z,2.80
2023-08-02T14:17:55.222Z,2.60
2023-08-02T14:20:22.988Z,2.80
2023-08-02T14:22:50.553Z,3.00
2023-08-02T14:25:18.344Z,3.00
2023-08-02T14:27:50.896Z,3.10
2023-08-02T14:30:30.526Z,3.10
2023-08-02T14:33:23.089Z,3.10
2023-08-02T14:36:02.108Z,3.20
2023-08-02T14:38:33.532Z,3.30
2023-08-02T14:41:01.363Z,3.50
2023-08-02T14:43:29.034Z,3.40
2023-08-02T14:45:56.547Z,4.20
2023-08-02T14:48:24.235Z,4.50
2023-08-02T14:50:52.891Z,4.70
2023-08-02T14:53:25.846Z,5.10
2023-08-02T14:55:53.893Z,5.70
2023-08-02T14:58:21.421Z,5.10
2023-08-02T15:00:51.358Z,4.90
2023-08-02T15:03:19.399Z,6.00
2023-08-02T15:05:47.308Z,6.00
2023-08-02T15:08:14.823Z,5.50
2023-08-02T15:10:42.631Z,6.00
2023-08-02T15:13:10.390Z,5.70
2023-08-02T15:15:37.988Z,5.90
2023-08-02T15:18:05.566Z,6.00
2023-08-02T15:20:33.468Z,5.90
2023-08-02T15:23:01.109Z,5.60
2023-08-02T15:25:28.817Z,5.20
2023-08-02T15:27:56.303Z,5.50
2023-08-02T15:30:23.842Z,6.10
2023-08-02T15:32:51.386Z,6.70
2023-08-02T15:35:19.335Z,5.90
2023-08-02T15:37:50.101Z,5.70
2023-08-02T15:40:22.317Z,5.40
2023-08-02T15:42:50.086Z,6.20
2023-08-02T15:45:17.610Z,6.40
2023-08-02T15:47:45.553Z,6.30
2023-08-02T15:50:13.244Z,5.60
2023-08-02T15:52:40.827Z,5.90
2023-08-02T15:55:08.466Z,5.90
2023-08-02T15:57:36.027Z,6.60
2023-08-02T16:00:04.300Z,6.50
2023-08-02T16:02:39.292Z,5.80
2023-08-02T16:05:08.167Z,5.70
2023-08-02T16:07:35.741Z,5.80
2023-08-02T16:10:03.326Z,6.50
2023-08-02T16:12:31.108Z,6.40
2023-08-02T16:14:58.712Z,6.00
2023-08-02T16:17:26.292Z,5.80
2023-08-02T16:19:54.456Z,5.50
2023-08-02T16:22:22.136Z,5.60
2023-08-02T16:24:51.035Z,5.60
2023-08-02T16:27:18.662Z,6.30
2023-08-02T16:29:46.189Z,5.50
2023-08-02T16:32:13.750Z,5.90
2023-08-02T16:34:41.666Z,6.00
2023-08-02T16:37:09.254Z,6.10
2023-08-02T16:39:36.796Z,6.60
2023-08-02T16:42:04.978Z,6.00
2023-08-02T16:44:32.655Z,5.80
2023-08-02T16:47:00.294Z,6.30
2023-08-02T16:49:28.129Z,6.20
2023-08-02T16:51:55.691Z,6.90
2023-08-02T16:54:23.266Z,6.40
2023-08-02T16:56:50.921Z,6.40
2023-08-02T16:59:18.640Z,5.70
2023-08-02T17:01:46.598Z,6.00
2023-08-02T17:04:14.505Z,6.50
2023-08-02T17:06:42.278Z,6.10
2023-08-02T17:09:09.935Z,5.60
2023-08-02T17:11:37.663Z,6.00
2023-08-02T17:14:05.543Z,6.50
2023-08-02T17:16:33.150Z,6.40
2023-08-02T17:19:00.916Z,6.50
2023-08-02T17:21:28.613Z,6.80
2023-08-02T17:23:56.189Z,6.40
2023-08-02T17:26:23.765Z,6.50
2023-08-02T17:28:51.856Z,7.30
2023-08-02T17:31:19.685Z,7.00
2023-08-02T17:33:47.288Z,6.60
2023-08-02T17:36:15.048Z,7.60
2023-08-02T17:38:43.082Z,6.50
2023-08-02T17:41:10.830Z,7.20
2023-08-02T17:43:38.399Z,6.50
2023-08-02T17:46:06.143Z,6.50
2023-08-02T17:48:33.831Z,6.50
2023-08-02T17:51:03.185Z,6.70
2023-08-02T17:53:31.197Z,6.80
2023-08-02T17:56:00.130Z,6.60
2023-08-02T17:58:31.077Z,6.70
2023-08-02T18:01:31.213Z,7.20
2023-08-02T18:03:59.738Z,6.80
2023-08-02T18:06:27.481Z,6.70
2023-08-02T18:08:55.197Z,6.30
2023-08-02T18:11:23.178Z,6.70
2023-08-02T18:13:50.844Z,6.50
2023-08-02T18:16:18.752Z,6.60
2023-08-02T18:18:46.490Z,7.40
2023-08-02T18:21:14.311Z,6.90
2023-08-02T18:23:41.865Z,6.50
2023-08-02T18:26:13.927Z,6.70
2023-08-02T18:28:41.614Z,6.70
2023-08-02T18:31:09.241Z,7.00
2023-08-02T18:33:36.965Z,6.70
2023-08-02T18:36:22.908Z,6.10
2023-08-02T18:38:50.522Z,6.70
2023-08-02T18:41:18.939Z,6.80
2023-08-02T18:43:48.293Z,7.30
2023-08-02T18:46:19.674Z,6.30
2023-08-02T18:48:47.939Z,6.20
2023-08-02T18:51:19.096Z,6.70
2023-08-02T18:53:50.108Z,7.00
2023-08-02T18:56:19.234Z,6.50
2023-08-02T18:58:49.080Z,6.40
2023-08-02T19:01:17.403Z,6.30
2023-08-02T19:03:45.132Z,6.20
2023-08-02T19:06:14.674Z,6.40
2023-08-02T19:08:45.611Z,5.60
2023-08-02T19:11:20.290Z,5.90
2023-08-02T19:13:48.209Z,6.40
2023-08-02T19:16:16.002Z,6.40
2023-08-02T19:18:43.766Z,6.10
2023-08-02T19:21:16.550Z,6.30
2023-08-02T19:23:47.681Z,5.90
2023-08-02T19:26:19.374Z,6.30
2023-08-02T19:28:47.408Z,6.20
2023-08-02T19:31:15.381Z,6.40
2023-08-02T19:33:45.065Z,5.70
2023-08-02T19:38:48.319Z,6.10
2023-08-02T19:41:28.233Z,6.00
2023-08-02T19:43:58.855Z,5.80
2023-08-02T19:46:27.707Z,5.60
2023-08-02T19:48:55.736Z,6.10
2023-08-02T19:51:23.323Z,6.10
2023-08-02T19:53:50.896Z,5.70
2023-08-02T19:56:23.109Z,5.30
2023-08-02T19:58:51.526Z,5.90
2023-08-02T20:01:19.234Z,6.00
2023-08-02T20:03:47.187Z,6.00
2023-08-02T20:06:14.908Z,5.50
2023-08-02T20:08:42.795Z,5.30
2023-08-02T20:11:11.758Z,5.70
2023-08-02T20:13:41.953Z,5.70
2023-08-02T20:16:12.664Z,5.60
2023-08-02T20:18:40.558Z,5.40
2023-08-02T20:21:20.928Z,5.10
2023-08-02T20:23:49.429Z,5.20
2023-08-02T20:26:17.041Z,5.10
2023-08-02T20:28:48.456Z,5.70
2023-08-02T20:31:18.144Z,5.20
2023-08-02T20:36:15.068Z,5.80
2023-08-02T20:38:45.767Z,5.60
2023-08-02T20:41:18.081Z,5.80
2023-08-02T20:43:46.774Z,4.90
2023-08-02T20:46:16.370Z,4.90
2023-08-02T20:48:44.029Z,5.90
2023-08-02T20:51:13.774Z,5.70
2023-08-02T20:53:41.575Z,5.80
2023-08-02T20:56:09.928Z,5.00
2023-08-02T20:58:38.367Z,5.70
2023-08-02T21:01:06.748Z,5.40
2023-08-02T21:03:38.057Z,6.40
2023-08-02T21:06:06.122Z,6.40
2023-08-02T21:08:33.886Z,6.20
2023-08-02T21:11:03.188Z,5.40
2023-08-02T21:13:30.874Z,5.60
2023-08-02T21:15:58.944Z,5.30
2023-08-02T21:18:31.389Z,5.60
2023-08-02T21:20:59.742Z,5.40
2023-08-02T21:23:27.638Z,5.30
2023-08-02T21:25:56.686Z,5.80
2023-08-02T21:28:28.534Z,6.00
2023-08-02T21:30:57.992Z,5.70
2023-08-02T21:33:27.417Z,5.80
2023-08-02T21:35:57.315Z,4.80
2023-08-02T21:38:34.753Z,5.60
2023-08-02T21:41:06.417Z,5.70
2023-08-02T21:43:34.841Z,5.40
2023-08-02T21:46:07.513Z,4.80
2023-08-02T21:48:48.706Z,5.00
2023-08-02T21:51:17.718Z,5.90
2023-08-02T21:53:46.958Z,5.80
2023-08-02T21:56:15.063Z,6.00
2023-08-02T21:58:43.577Z,5.20
2023-08-02T22:01:13.942Z,5.00
2023-08-02T22:03:42.515Z,5.30
2023-08-02T22:06:10.389Z,5.80
2023-08-02T22:08:41.840Z,5.90
2023-08-02T22:11:12.651Z,5.30
2023-08-02T22:13:40.355Z,5.50
2023-08-02T22:16:12.776Z,5.50
2023-08-02T22:20:02.105Z,5.70
2023-08-02T22:22:29.669Z,5.10
2023-08-02T22:24:57.222Z,5.70
2023-08-02T22:27:26.275Z,6.00
2023-08-02T22:29:59.030Z,5.70
2023-08-02T22:32:28.450Z,5.90
2023-08-02T22:34:56.021Z,5.20
2023-08-02T22:37:23.831Z,5.60
2023-08-02T22:39:54.046Z,6.90
2023-08-02T22:42:21.636Z,6.20
2023-08-02T22:44:49.159Z,6.10
2023-08-02T22:47:16.729Z,6.30
2023-08-02T22:50:31.247Z,6.30
2023-08-02T22:52:33.322Z,6.80
2023-08-02T22:55:00.910Z,6.70
2023-08-02T22:57:32.698Z,6.60
2023-08-02T23:00:00.719Z,6.30
2023-08-02T23:02:37.800Z,6.40
2023-08-02T23:05:26.218Z,6.70
2023-08-02T23:07:53.778Z,7.10
2023-08-02T23:10:27.715Z,6.80
2023-08-02T23:12:59.563Z,6.30
2023-08-02T23:15:27.141Z,6.50
2023-08-02T23:17:56.415Z,6.40
2023-08-02T23:20:36.459Z,6.40
2023-08-02T23:23:04.127Z,6.90
2023-08-02T23:25:31.742Z,6.30
2023-08-02T23:27:59.348Z,6.70
2023-08-02T23:30:27.959Z,6.10
2023-08-02T23:32:55.553Z,6.70
2023-08-02T23:35:23.216Z,6.60
2023-08-02T23:37:52.885Z,6.10
2023-08-02T23:40:20.407Z,6.30
2023-08-02T23:42:47.928Z,5.70
2023-08-02T23:45:15.665Z,5.90
2023-08-02T23:47:43.291Z,6.00
2023-08-02T23:50:13.138Z,6.20
2023-08-02T23:52:41.095Z,5.50
2023-08-02T23:55:09.108Z,5.40
2023-08-02T23:57:36.664Z,5.40
